sensor_id;sensor_type;location;lat;lon;timestamp;P1;durP1;ratioP1;P2;durP2;ratioP2
59239;SDS011;45010;53.640;10.578;2023-07-29T00:02:30;0.50;;;0.50;;
59239;SDS011;45010;53.640;10.578;2023-07-29T00:05:32;0.50;;;0.40;;
59239;SDS011;45010;53.640;10.578;2023-07-29T00:08:32;0.40;;;0.40;;
59239;SDS011;45010;53.640;10.578;2023-07-29T00:11:33;1.30;;;0.40;;
59239;SDS011;45010;53.640;10.578;2023-07-29T00:14:34;0.40;;;0.40;;
59239;SDS011;45010;53.640;10.578;2023-07-29T00:17:34;0.35;;;0.35;;
59239;SDS011;45010;53.640;10.578;2023-07-29T00:20:34;0.40;;;0.40;;
59239;SDS011;45010;53.640;10.578;2023-07-29T00:23:34;0.60;;;0.57;;
59239;SDS011;45010;53.640;10.578;2023-07-29T00:26:35;0.40;;;0.40;;
59239;SDS011;45010;53.640;10.578;2023-07-29T00:29:35;0.20;;;0.20;;
59239;SDS011;45010;53.640;10.578;2023-07-29T00:32:35;0.40;;;0.40;;
59239;SDS011;45010;53.640;10.578;2023-07-29T00:35:36;0.40;;;0.40;;
59239;SDS011;45010;53.640;10.578;2023-07-29T00:38:36;0.40;;;0.40;;
59239;SDS011;45010;53.640;10.578;2023-07-29T00:41:37;0.47;;;0.43;;
59239;SDS011;45010;53.640;10.578;2023-07-29T00:44:37;0.45;;;0.45;;
59239;SDS011;45010;53.640;10.578;2023-07-29T00:47:38;0.40;;;0.40;;
59239;SDS011;45010;53.640;10.578;2023-07-29T00:50:39;1.50;;;0.30;;
59239;SDS011;45010;53.640;10.578;2023-07-29T00:53:40;0.30;;;0.30;;
59239;SDS011;45010;53.640;10.578;2023-07-29T00:56:40;0.40;;;0.40;;
59239;SDS011;45010;53.640;10.578;2023-07-29T00:59:40;0.50;;;0.50;;
59239;SDS011;45010;53.640;10.578;2023-07-29T01:02:44;0.40;;;0.40;;
59239;SDS011;45010;53.640;10.578;2023-07-29T01:05:50;0.40;;;0.40;;
59239;SDS011;45010;53.640;10.578;2023-07-29T01:09:02;0.60;;;0.43;;
59239;SDS011;45010;53.640;10.578;2023-07-29T01:12:08;0.80;;;0.40;;
59239;SDS011;45010;53.640;10.578;2023-07-29T01:15:19;0.30;;;0.30;;
59239;SDS011;45010;53.640;10.578;2023-07-29T01:18:31;0.40;;;0.40;;
59239;SDS011;45010;53.640;10.578;2023-07-29T01:21:33;0.57;;;0.50;;
59239;SDS011;45010;53.640;10.578;2023-07-29T01:24:35;0.40;;;0.40;;
59239;SDS011;45010;53.640;10.578;2023-07-29T01:27:35;0.40;;;0.40;;
59239;SDS011;45010;53.640;10.578;2023-07-29T01:30:38;0.40;;;0.40;;
59239;SDS011;45010;53.640;10.578;2023-07-29T01:33:42;0.35;;;0.35;;
59239;SDS011;45010;53.640;10.578;2023-07-29T01:36:48;0.50;;;0.40;;
59239;SDS011;45010;53.640;10.578;2023-07-29T01:39:52;0.43;;;0.40;;
59239;SDS011;45010;53.640;10.578;2023-07-29T01:42:54;0.40;;;0.40;;
59239;SDS011;45010;53.640;10.578;2023-07-29T01:45:56;0.98;;;0.35;;
59239;SDS011;45010;53.640;10.578;2023-07-29T01:48:56;0.40;;;0.40;;
59239;SDS011;45010;53.640;10.578;2023-07-29T01:51:57;0.50;;;0.50;;
59239;SDS011;45010;53.640;10.578;2023-07-29T01:54:57;0.63;;;0.63;;
59239;SDS011;45010;53.640;10.578;2023-07-29T01:57:57;0.35;;;0.35;;
59239;SDS011;45010;53.640;10.578;2023-07-29T02:00:58;0.40;;;0.40;;
59239;SDS011;45010;53.640;10.578;2023-07-29T02:03:59;0.52;;;0.52;;
59239;SDS011;45010;53.640;10.578;2023-07-29T02:06:59;0.30;;;0.30;;
59239;SDS011;45010;53.640;10.578;2023-07-29T02:09:59;0.43;;;0.40;;
59239;SDS011;45010;53.640;10.578;2023-07-29T02:13:00;0.57;;;0.57;;
59239;SDS011;45010;53.640;10.578;2023-07-29T02:16:00;0.47;;;0.47;;
59239;SDS011;45010;53.640;10.578;2023-07-29T02:19:00;0.50;;;0.50;;
59239;SDS011;45010;53.640;10.578;2023-07-29T02:22:01;0.35;;;0.35;;
59239;SDS011;45010;53.640;10.578;2023-07-29T02:25:01;0.50;;;0.47;;
59239;SDS011;45010;53.640;10.578;2023-07-29T02:28:02;0.60;;;0.60;;
59239;SDS011;45010;53.640;10.578;2023-07-29T02:31:13;0.40;;;0.40;;
59239;SDS011;45010;53.640;10.578;2023-07-29T02:34:16;0.40;;;0.40;;
59239;SDS011;45010;53.640;10.578;2023-07-29T02:37:17;0.28;;;0.28;;
59239;SDS011;45010;53.640;10.578;2023-07-29T02:40:17;0.73;;;0.50;;
59239;SDS011;45010;53.640;10.578;2023-07-29T02:43:17;0.70;;;0.70;;
59239;SDS011;45010;53.640;10.578;2023-07-29T02:46:18;0.50;;;0.50;;
59239;SDS011;45010;53.640;10.578;2023-07-29T02:49:18;0.75;;;0.70;;
59239;SDS011;45010;53.640;10.578;2023-07-29T02:52:18;0.40;;;0.40;;
59239;SDS011;45010;53.640;10.578;2023-07-29T02:55:19;0.77;;;0.50;;
59239;SDS011;45010;53.640;10.578;2023-07-29T02:58:19;0.60;;;0.60;;
59239;SDS011;45010;53.640;10.578;2023-07-29T03:01:19;0.43;;;0.43;;
59239;SDS011;45010;53.640;10.578;2023-07-29T03:04:20;0.68;;;0.68;;
59239;SDS011;45010;53.640;10.578;2023-07-29T03:07:20;0.50;;;0.50;;
59239;SDS011;45010;53.640;10.578;2023-07-29T03:10:20;0.85;;;0.70;;
59239;SDS011;45010;53.640;10.578;2023-07-29T03:13:21;0.60;;;0.47;;
59239;SDS011;45010;53.640;10.578;2023-07-29T03:16:21;0.70;;;0.60;;
59239;SDS011;45010;53.640;10.578;2023-07-29T03:19:22;0.55;;;0.55;;
59239;SDS011;45010;53.640;10.578;2023-07-29T03:22:22;0.68;;;0.60;;
59239;SDS011;45010;53.640;10.578;2023-07-29T03:25:23;1.05;;;0.47;;
59239;SDS011;45010;53.640;10.578;2023-07-29T03:28:24;0.60;;;0.60;;
59239;SDS011;45010;53.640;10.578;2023-07-29T03:31:26;0.50;;;0.50;;
59239;SDS011;45010;53.640;10.578;2023-07-29T03:34:26;1.33;;;0.60;;
59239;SDS011;45010;53.640;10.578;2023-07-29T03:37:26;0.52;;;0.52;;
59239;SDS011;45010;53.640;10.578;2023-07-29T03:40:27;0.52;;;0.52;;
59239;SDS011;45010;53.640;10.578;2023-07-29T03:43:27;0.60;;;0.60;;
59239;SDS011;45010;53.640;10.578;2023-07-29T03:46:27;0.50;;;0.50;;
59239;SDS011;45010;53.640;10.578;2023-07-29T03:49:27;0.82;;;0.50;;
59239;SDS011;45010;53.640;10.578;2023-07-29T03:52:28;1.55;;;0.55;;
59239;SDS011;45010;53.640;10.578;2023-07-29T03:55:28;0.63;;;0.63;;
59239;SDS011;45010;53.640;10.578;2023-07-29T03:58:31;0.80;;;0.70;;
59239;SDS011;45010;53.640;10.578;2023-07-29T04:01:31;0.95;;;0.68;;
59239;SDS011;45010;53.640;10.578;2023-07-29T04:04:32;0.50;;;0.50;;
59239;SDS011;45010;53.640;10.578;2023-07-29T04:07:32;0.80;;;0.60;;
59239;SDS011;45010;53.640;10.578;2023-07-29T04:10:32;0.68;;;0.60;;
59239;SDS011;45010;53.640;10.578;2023-07-29T04:13:35;0.60;;;0.60;;
59239;SDS011;45010;53.640;10.578;2023-07-29T04:16:37;0.90;;;0.60;;
59239;SDS011;45010;53.640;10.578;2023-07-29T04:19:37;1.25;;;0.73;;
59239;SDS011;45010;53.640;10.578;2023-07-29T04:22:38;0.50;;;0.50;;
59239;SDS011;45010;53.640;10.578;2023-07-29T04:25:38;0.65;;;0.65;;
59239;SDS011;45010;53.640;10.578;2023-07-29T04:28:38;1.05;;;0.63;;
59239;SDS011;45010;53.640;10.578;2023-07-29T04:31:39;0.77;;;0.77;;
59239;SDS011;45010;53.640;10.578;2023-07-29T04:34:39;0.75;;;0.70;;
59239;SDS011;45010;53.640;10.578;2023-07-29T04:37:40;0.70;;;0.60;;
59239;SDS011;45010;53.640;10.578;2023-07-29T04:40:40;0.63;;;0.60;;
59239;SDS011;45010;53.640;10.578;2023-07-29T04:43:40;0.95;;;0.75;;
59239;SDS011;45010;53.640;10.578;2023-07-29T04:46:41;0.70;;;0.70;;
59239;SDS011;45010;53.640;10.578;2023-07-29T04:49:41;0.65;;;0.65;;
59239;SDS011;45010;53.640;10.578;2023-07-29T04:52:41;0.70;;;0.70;;
59239;SDS011;45010;53.640;10.578;2023-07-29T04:55:42;0.73;;;0.70;;
59239;SDS011;45010;53.640;10.578;2023-07-29T04:58:45;1.00;;;0.80;;
59239;SDS011;45010;53.640;10.578;2023-07-29T05:01:45;0.80;;;0.80;;
59239;SDS011;45010;53.640;10.578;2023-07-29T05:04:46;1.00;;;1.00;;
59239;SDS011;45010;53.640;10.578;2023-07-29T05:07:46;0.93;;;0.80;;
59239;SDS011;45010;53.640;10.578;2023-07-29T05:10:49;0.93;;;0.90;;
59239;SDS011;45010;53.640;10.578;2023-07-29T05:13:50;0.80;;;0.80;;
59239;SDS011;45010;53.640;10.578;2023-07-29T05:16:51;0.80;;;0.80;;
59239;SDS011;45010;53.640;10.578;2023-07-29T05:19:51;0.70;;;0.70;;
59239;SDS011;45010;53.640;10.578;2023-07-29T05:22:51;1.60;;;1.00;;
59239;SDS011;45010;53.640;10.578;2023-07-29T05:25:52;1.10;;;1.00;;
59239;SDS011;45010;53.640;10.578;2023-07-29T05:28:52;1.00;;;0.90;;
59239;SDS011;45010;53.640;10.578;2023-07-29T05:31:52;0.93;;;0.93;;
59239;SDS011;45010;53.640;10.578;2023-07-29T05:34:53;0.93;;;0.93;;
59239;SDS011;45010;53.640;10.578;2023-07-29T05:37:53;0.80;;;0.77;;
59239;SDS011;45010;53.640;10.578;2023-07-29T05:40:54;1.35;;;1.08;;
59239;SDS011;45010;53.640;10.578;2023-07-29T05:43:54;1.30;;;1.20;;
59239;SDS011;45010;53.640;10.578;2023-07-29T05:46:54;0.98;;;0.98;;
59239;SDS011;45010;53.640;10.578;2023-07-29T05:49:54;1.13;;;1.02;;
59239;SDS011;45010;53.640;10.578;2023-07-29T05:52:55;0.95;;;0.90;;
59239;SDS011;45010;53.640;10.578;2023-07-29T05:55:55;1.30;;;1.00;;
59239;SDS011;45010;53.640;10.578;2023-07-29T05:58:55;1.23;;;1.13;;
59239;SDS011;45010;53.640;10.578;2023-07-29T06:01:56;1.33;;;0.98;;
59239;SDS011;45010;53.640;10.578;2023-07-29T06:04:56;1.02;;;0.98;;
59239;SDS011;45010;53.640;10.578;2023-07-29T06:07:56;1.45;;;1.35;;
59239;SDS011;45010;53.640;10.578;2023-07-29T06:10:57;1.20;;;1.10;;
59239;SDS011;45010;53.640;10.578;2023-07-29T06:13:57;1.23;;;1.13;;
59239;SDS011;45010;53.640;10.578;2023-07-29T06:16:57;1.30;;;1.20;;
59239;SDS011;45010;53.640;10.578;2023-07-29T06:19:58;1.33;;;1.23;;
59239;SDS011;45010;53.640;10.578;2023-07-29T06:22:58;2.13;;;0.98;;
59239;SDS011;45010;53.640;10.578;2023-07-29T06:25:58;1.48;;;1.38;;
59239;SDS011;45010;53.640;10.578;2023-07-29T06:29:00;1.90;;;1.55;;
59239;SDS011;45010;53.640;10.578;2023-07-29T06:32:00;1.58;;;1.45;;
59239;SDS011;45010;53.640;10.578;2023-07-29T06:35:02;1.25;;;1.05;;
59239;SDS011;45010;53.640;10.578;2023-07-29T06:38:02;1.30;;;1.20;;
59239;SDS011;45010;53.640;10.578;2023-07-29T06:41:03;1.40;;;1.30;;
59239;SDS011;45010;53.640;10.578;2023-07-29T06:44:04;1.67;;;1.58;;
59239;SDS011;45010;53.640;10.578;2023-07-29T06:47:04;1.20;;;1.10;;
59239;SDS011;45010;53.640;10.578;2023-07-29T06:50:05;1.10;;;1.00;;
59239;SDS011;45010;53.640;10.578;2023-07-29T06:53:05;1.25;;;1.15;;
59239;SDS011;45010;53.640;10.578;2023-07-29T06:56:06;1.63;;;1.48;;
59239;SDS011;45010;53.640;10.578;2023-07-29T06:59:06;1.40;;;1.20;;
59239;SDS011;45010;53.640;10.578;2023-07-29T07:02:07;1.48;;;1.20;;
59239;SDS011;45010;53.640;10.578;2023-07-29T07:05:07;1.30;;;1.20;;
59239;SDS011;45010;53.640;10.578;2023-07-29T07:08:07;0.88;;;0.88;;
59239;SDS011;45010;53.640;10.578;2023-07-29T07:11:08;1.20;;;1.10;;
59239;SDS011;45010;53.640;10.578;2023-07-29T07:14:08;1.30;;;1.20;;
59239;SDS011;45010;53.640;10.578;2023-07-29T07:17:09;1.35;;;1.25;;
59239;SDS011;45010;53.640;10.578;2023-07-29T07:20:09;1.58;;;1.48;;
59239;SDS011;45010;53.640;10.578;2023-07-29T07:23:10;1.20;;;1.10;;
59239;SDS011;45010;53.640;10.578;2023-07-29T07:26:12;1.50;;;1.40;;
59239;SDS011;45010;53.640;10.578;2023-07-29T07:29:12;1.90;;;1.80;;
59239;SDS011;45010;53.640;10.578;2023-07-29T07:32:12;1.67;;;1.42;;
59239;SDS011;45010;53.640;10.578;2023-07-29T07:35:13;1.27;;;1.17;;
59239;SDS011;45010;53.640;10.578;2023-07-29T07:38:13;1.60;;;1.50;;
59239;SDS011;45010;53.640;10.578;2023-07-29T07:41:13;1.40;;;1.30;;
59239;SDS011;45010;53.640;10.578;2023-07-29T07:44:14;1.67;;;1.55;;
59239;SDS011;45010;53.640;10.578;2023-07-29T07:47:17;1.30;;;1.20;;
59239;SDS011;45010;53.640;10.578;2023-07-29T07:50:17;1.70;;;1.60;;
59239;SDS011;45010;53.640;10.578;2023-07-29T07:53:18;1.40;;;1.30;;
59239;SDS011;45010;53.640;10.578;2023-07-29T07:56:19;1.50;;;1.40;;
59239;SDS011;45010;53.640;10.578;2023-07-29T07:59:20;1.35;;;1.25;;
59239;SDS011;45010;53.640;10.578;2023-07-29T08:02:20;1.30;;;1.20;;
59239;SDS011;45010;53.640;10.578;2023-07-29T08:05:20;1.70;;;1.60;;
59239;SDS011;45010;53.640;10.578;2023-07-29T08:08:21;1.52;;;1.42;;
59239;SDS011;45010;53.640;10.578;2023-07-29T08:11:21;1.40;;;1.30;;
59239;SDS011;45010;53.640;10.578;2023-07-29T08:14:22;1.70;;;1.60;;
59239;SDS011;45010;53.640;10.578;2023-07-29T08:17:22;1.55;;;1.45;;
59239;SDS011;45010;53.640;10.578;2023-07-29T08:20:22;1.30;;;1.20;;
59239;SDS011;45010;53.640;10.578;2023-07-29T08:23:26;1.70;;;1.60;;
59239;SDS011;45010;53.640;10.578;2023-07-29T08:26:26;1.65;;;1.55;;
59239;SDS011;45010;53.640;10.578;2023-07-29T08:29:27;1.70;;;1.60;;
59239;SDS011;45010;53.640;10.578;2023-07-29T08:32:27;1.92;;;1.83;;
59239;SDS011;45010;53.640;10.578;2023-07-29T08:35:27;1.80;;;1.70;;
59239;SDS011;45010;53.640;10.578;2023-07-29T08:38:28;1.70;;;1.60;;
59239;SDS011;45010;53.640;10.578;2023-07-29T08:41:34;1.65;;;1.48;;
59239;SDS011;45010;53.640;10.578;2023-07-29T08:44:42;1.50;;;1.40;;
59239;SDS011;45010;53.640;10.578;2023-07-29T08:47:43;1.70;;;1.60;;
59239;SDS011;45010;53.640;10.578;2023-07-29T08:50:43;1.98;;;1.83;;
59239;SDS011;45010;53.640;10.578;2023-07-29T08:53:44;1.63;;;1.52;;
59239;SDS011;45010;53.640;10.578;2023-07-29T08:56:44;1.75;;;1.65;;
59239;SDS011;45010;53.640;10.578;2023-07-29T08:59:45;1.70;;;1.60;;
59239;SDS011;45010;53.640;10.578;2023-07-29T09:02:46;1.70;;;1.60;;
59239;SDS011;45010;53.640;10.578;2023-07-29T09:05:46;1.77;;;1.67;;
59239;SDS011;45010;53.640;10.578;2023-07-29T09:08:48;1.80;;;1.70;;
59239;SDS011;45010;53.640;10.578;2023-07-29T09:11:50;2.10;;;1.90;;
59239;SDS011;45010;53.640;10.578;2023-07-29T09:14:53;1.80;;;1.70;;
59239;SDS011;45010;53.640;10.578;2023-07-29T09:17:55;1.88;;;1.77;;
59239;SDS011;45010;53.640;10.578;2023-07-29T09:20:58;2.00;;;1.80;;
59239;SDS011;45010;53.640;10.578;2023-07-29T09:24:03;2.38;;;2.17;;
59239;SDS011;45010;53.640;10.578;2023-07-29T09:27:05;1.88;;;1.77;;
59239;SDS011;45010;53.640;10.578;2023-07-29T09:30:05;1.77;;;1.67;;
59239;SDS011;45010;53.640;10.578;2023-07-29T09:33:06;1.92;;;1.83;;
59239;SDS011;45010;53.640;10.578;2023-07-29T09:36:10;1.77;;;1.67;;
59239;SDS011;45010;53.640;10.578;2023-07-29T09:39:10;1.77;;;1.67;;
59239;SDS011;45010;53.640;10.578;2023-07-29T09:42:22;1.80;;;1.70;;
59239;SDS011;45010;53.640;10.578;2023-07-29T09:45:23;2.13;;;1.92;;
59239;SDS011;45010;53.640;10.578;2023-07-29T09:48:25;2.25;;;2.05;;
59239;SDS011;45010;53.640;10.578;2023-07-29T09:51:25;2.17;;;1.98;;
59239;SDS011;45010;53.640;10.578;2023-07-29T09:54:25;1.90;;;1.80;;
59239;SDS011;45010;53.640;10.578;2023-07-29T09:57:26;1.70;;;1.60;;
59239;SDS011;45010;53.640;10.578;2023-07-29T10:00:27;2.00;;;1.90;;
59239;SDS011;45010;53.640;10.578;2023-07-29T10:03:28;2.30;;;2.10;;
59239;SDS011;45010;53.640;10.578;2023-07-29T10:06:30;1.80;;;1.70;;
59239;SDS011;45010;53.640;10.578;2023-07-29T10:09:30;1.73;;;1.63;;
59239;SDS011;45010;53.640;10.578;2023-07-29T10:12:31;1.92;;;1.83;;
59239;SDS011;45010;53.640;10.578;2023-07-29T10:15:32;2.28;;;2.08;;
59239;SDS011;45010;53.640;10.578;2023-07-29T10:18:33;1.88;;;1.77;;
59239;SDS011;45010;53.640;10.578;2023-07-29T10:21:34;2.55;;;2.15;;
59239;SDS011;45010;53.640;10.578;2023-07-29T10:24:38;1.80;;;1.70;;
59239;SDS011;45010;53.640;10.578;2023-07-29T10:30:47;2.15;;;1.95;;
59239;SDS011;45010;53.640;10.578;2023-07-29T10:33:47;2.40;;;2.20;;
59239;SDS011;45010;53.640;10.578;2023-07-29T10:36:49;2.65;;;2.45;;
59239;SDS011;45010;53.640;10.578;2023-07-29T10:39:54;1.77;;;1.67;;
59239;SDS011;45010;53.640;10.578;2023-07-29T10:43:02;1.85;;;1.75;;
59239;SDS011;45010;53.640;10.578;2023-07-29T10:46:15;1.83;;;1.73;;
59239;SDS011;45010;53.640;10.578;2023-07-29T10:49:17;2.28;;;2.00;;
59239;SDS011;45010;53.640;10.578;2023-07-29T10:52:30;2.28;;;2.08;;
59239;SDS011;45010;53.640;10.578;2023-07-29T10:55:43;1.90;;;1.80;;
59239;SDS011;45010;53.640;10.578;2023-07-29T10:58:43;1.77;;;1.67;;
59239;SDS011;45010;53.640;10.578;2023-07-29T11:02:17;2.28;;;2.08;;
59239;SDS011;45010;53.640;10.578;2023-07-29T11:05:18;2.22;;;2.08;;
59239;SDS011;45010;53.640;10.578;2023-07-29T11:08:22;2.20;;;2.00;;
59239;SDS011;45010;53.640;10.578;2023-07-29T11:11:28;2.17;;;1.98;;
59239;SDS011;45010;53.640;10.578;2023-07-29T11:14:28;2.10;;;1.90;;
59239;SDS011;45010;53.640;10.578;2023-07-29T11:17:33;2.22;;;2.13;;
59239;SDS011;45010;53.640;10.578;2023-07-29T11:20:36;2.20;;;2.00;;
59239;SDS011;45010;53.640;10.578;2023-07-29T11:23:36;2.40;;;2.20;;
59239;SDS011;45010;53.640;10.578;2023-07-29T11:26:37;2.42;;;2.22;;
59239;SDS011;45010;53.640;10.578;2023-07-29T11:29:37;1.92;;;1.83;;
59239;SDS011;45010;53.640;10.578;2023-07-29T11:32:38;1.98;;;1.88;;
59239;SDS011;45010;53.640;10.578;2023-07-29T11:35:40;2.08;;;1.98;;
59239;SDS011;45010;53.640;10.578;2023-07-29T11:38:40;2.20;;;2.10;;
59239;SDS011;45010;53.640;10.578;2023-07-29T11:41:42;2.10;;;2.00;;
59239;SDS011;45010;53.640;10.578;2023-07-29T11:44:42;2.17;;;1.98;;
59239;SDS011;45010;53.640;10.578;2023-07-29T11:47:42;2.20;;;2.00;;
59239;SDS011;45010;53.640;10.578;2023-07-29T11:50:43;2.25;;;2.05;;
59239;SDS011;45010;53.640;10.578;2023-07-29T11:53:45;2.47;;;2.28;;
59239;SDS011;45010;53.640;10.578;2023-07-29T11:56:45;2.15;;;2.05;;
59239;SDS011;45010;53.640;10.578;2023-07-29T11:59:46;2.47;;;2.28;;
59239;SDS011;45010;53.640;10.578;2023-07-29T12:02:47;2.10;;;2.00;;
59239;SDS011;45010;53.640;10.578;2023-07-29T12:05:49;2.10;;;2.00;;
59239;SDS011;45010;53.640;10.578;2023-07-29T12:08:49;2.38;;;2.17;;
59239;SDS011;45010;53.640;10.578;2023-07-29T12:11:50;2.10;;;2.00;;
59239;SDS011;45010;53.640;10.578;2023-07-29T12:14:53;2.78;;;2.58;;
59239;SDS011;45010;53.640;10.578;2023-07-29T12:17:55;2.70;;;2.50;;
59239;SDS011;45010;53.640;10.578;2023-07-29T12:20:56;2.17;;;1.98;;
59239;SDS011;45010;53.640;10.578;2023-07-29T12:23:56;2.33;;;2.22;;
59239;SDS011;45010;53.640;10.578;2023-07-29T12:26:57;2.60;;;2.40;;
59239;SDS011;45010;53.640;10.578;2023-07-29T12:29:57;2.60;;;2.40;;
59239;SDS011;45010;53.640;10.578;2023-07-29T12:33:00;2.25;;;2.05;;
59239;SDS011;45010;53.640;10.578;2023-07-29T12:36:01;2.63;;;2.42;;
59239;SDS011;45010;53.640;10.578;2023-07-29T12:39:02;2.40;;;2.20;;
59239;SDS011;45010;53.640;10.578;2023-07-29T12:42:02;2.20;;;1.98;;
59239;SDS011;45010;53.640;10.578;2023-07-29T12:45:04;2.65;;;2.45;;
59239;SDS011;45010;53.640;10.578;2023-07-29T12:48:04;2.00;;;1.90;;
59239;SDS011;45010;53.640;10.578;2023-07-29T12:51:05;2.30;;;2.10;;
59239;SDS011;45010;53.640;10.578;2023-07-29T12:54:05;1.90;;;1.80;;
59239;SDS011;45010;53.640;10.578;2023-07-29T12:57:05;2.50;;;2.30;;
59239;SDS011;45010;53.640;10.578;2023-07-29T13:00:06;2.63;;;2.42;;
59239;SDS011;45010;53.640;10.578;2023-07-29T13:03:09;2.60;;;2.40;;
59239;SDS011;45010;53.640;10.578;2023-07-29T13:06:09;2.10;;;1.90;;
59239;SDS011;45010;53.640;10.578;2023-07-29T13:09:09;2.20;;;2.00;;
59239;SDS011;45010;53.640;10.578;2023-07-29T13:12:09;2.38;;;2.17;;
59239;SDS011;45010;53.640;10.578;2023-07-29T13:15:10;3.05;;;2.60;;
59239;SDS011;45010;53.640;10.578;2023-07-29T13:18:10;1.95;;;1.85;;
59239;SDS011;45010;53.640;10.578;2023-07-29T13:21:10;2.30;;;2.10;;
59239;SDS011;45010;53.640;10.578;2023-07-29T13:24:11;2.38;;;2.20;;
59239;SDS011;45010;53.640;10.578;2023-07-29T13:27:11;2.00;;;1.90;;
59239;SDS011;45010;53.640;10.578;2023-07-29T13:30:12;2.20;;;2.10;;
59239;SDS011;45010;53.640;10.578;2023-07-29T13:33:12;2.00;;;1.90;;
59239;SDS011;45010;53.640;10.578;2023-07-29T13:36:12;2.38;;;2.17;;
59239;SDS011;45010;53.640;10.578;2023-07-29T13:39:13;2.05;;;1.90;;
59239;SDS011;45010;53.640;10.578;2023-07-29T13:42:13;2.08;;;1.98;;
59239;SDS011;45010;53.640;10.578;2023-07-29T13:45:13;2.42;;;2.22;;
59239;SDS011;45010;53.640;10.578;2023-07-29T13:48:14;2.08;;;1.98;;
59239;SDS011;45010;53.640;10.578;2023-07-29T13:51:14;1.98;;;1.88;;
59239;SDS011;45010;53.640;10.578;2023-07-29T13:54:14;2.65;;;2.45;;
59239;SDS011;45010;53.640;10.578;2023-07-29T13:57:15;2.10;;;2.00;;
59239;SDS011;45010;53.640;10.578;2023-07-29T14:00:15;2.28;;;2.08;;
59239;SDS011;45010;53.640;10.578;2023-07-29T14:03:16;2.40;;;2.20;;
59239;SDS011;45010;53.640;10.578;2023-07-29T14:06:16;2.20;;;2.10;;
59239;SDS011;45010;53.640;10.578;2023-07-29T14:09:16;2.45;;;2.25;;
59239;SDS011;45010;53.640;10.578;2023-07-29T14:12:16;2.30;;;2.10;;
59239;SDS011;45010;53.640;10.578;2023-07-29T14:15:17;3.00;;;2.70;;
59239;SDS011;45010;53.640;10.578;2023-07-29T14:18:17;5.63;;;2.65;;
59239;SDS011;45010;53.640;10.578;2023-07-29T14:21:18;3.28;;;2.45;;
59239;SDS011;45010;53.640;10.578;2023-07-29T14:24:18;2.85;;;2.10;;
59239;SDS011;45010;53.640;10.578;2023-07-29T14:27:19;4.90;;;2.30;;
59239;SDS011;45010;53.640;10.578;2023-07-29T14:30:20;3.58;;;2.67;;
59239;SDS011;45010;53.640;10.578;2023-07-29T14:33:20;3.58;;;2.17;;
59239;SDS011;45010;53.640;10.578;2023-07-29T14:36:20;3.13;;;1.75;;
59239;SDS011;45010;53.640;10.578;2023-07-29T14:39:21;2.53;;;2.20;;
59239;SDS011;45010;53.640;10.578;2023-07-29T14:42:21;4.15;;;2.40;;
59239;SDS011;45010;53.640;10.578;2023-07-29T14:45:22;4.00;;;2.10;;
59239;SDS011;45010;53.640;10.578;2023-07-29T14:48:23;4.00;;;2.08;;
59239;SDS011;45010;53.640;10.578;2023-07-29T14:51:23;5.28;;;2.53;;
59239;SDS011;45010;53.640;10.578;2023-07-29T14:54:23;4.38;;;2.00;;
59239;SDS011;45010;53.640;10.578;2023-07-29T14:57:24;2.67;;;2.30;;
59239;SDS011;45010;53.640;10.578;2023-07-29T15:00:24;4.05;;;2.30;;
59239;SDS011;45010;53.640;10.578;2023-07-29T15:03:24;3.40;;;2.38;;
59239;SDS011;45010;53.640;10.578;2023-07-29T15:06:25;2.67;;;1.88;;
59239;SDS011;45010;53.640;10.578;2023-07-29T15:09:25;2.60;;;2.00;;
59239;SDS011;45010;53.640;10.578;2023-07-29T15:12:25;5.15;;;2.00;;
59239;SDS011;45010;53.640;10.578;2023-07-29T15:15:26;4.47;;;2.63;;
59239;SDS011;45010;53.640;10.578;2023-07-29T15:18:26;5.55;;;2.22;;
59239;SDS011;45010;53.640;10.578;2023-07-29T15:21:30;5.10;;;1.95;;
59239;SDS011;45010;53.640;10.578;2023-07-29T15:24:30;6.95;;;2.60;;
59239;SDS011;45010;53.640;10.578;2023-07-29T15:27:30;3.35;;;2.15;;
59239;SDS011;45010;53.640;10.578;2023-07-29T15:30:31;5.45;;;2.80;;
59239;SDS011;45010;53.640;10.578;2023-07-29T15:33:35;3.58;;;2.20;;
59239;SDS011;45010;53.640;10.578;2023-07-29T15:36:35;3.65;;;2.60;;
59239;SDS011;45010;53.640;10.578;2023-07-29T15:39:35;6.05;;;2.53;;
59239;SDS011;45010;53.640;10.578;2023-07-29T15:42:35;7.65;;;3.22;;
59239;SDS011;45010;53.640;10.578;2023-07-29T15:45:36;9.13;;;3.40;;
59239;SDS011;45010;53.640;10.578;2023-07-29T15:48:36;8.30;;;3.97;;
59239;SDS011;45010;53.640;10.578;2023-07-29T15:51:37;9.73;;;3.33;;
59239;SDS011;45010;53.640;10.578;2023-07-29T15:54:37;9.68;;;3.42;;
59239;SDS011;45010;53.640;10.578;2023-07-29T15:57:37;8.35;;;3.67;;
59239;SDS011;45010;53.640;10.578;2023-07-29T16:00:38;9.57;;;3.58;;
59239;SDS011;45010;53.640;10.578;2023-07-29T16:03:38;8.68;;;3.92;;
59239;SDS011;45010;53.640;10.578;2023-07-29T16:06:41;6.38;;;3.08;;
59239;SDS011;45010;53.640;10.578;2023-07-29T16:09:41;8.95;;;3.20;;
59239;SDS011;45010;53.640;10.578;2023-07-29T16:12:41;6.57;;;3.17;;
59239;SDS011;45010;53.640;10.578;2023-07-29T16:15:41;5.53;;;3.08;;
59239;SDS011;45010;53.640;10.578;2023-07-29T16:18:42;5.20;;;3.15;;
59239;SDS011;45010;53.640;10.578;2023-07-29T16:21:42;7.32;;;3.08;;
59239;SDS011;45010;53.640;10.578;2023-07-29T16:24:42;4.60;;;2.70;;
59239;SDS011;45010;53.640;10.578;2023-07-29T16:27:43;5.13;;;3.55;;
59239;SDS011;45010;53.640;10.578;2023-07-29T16:30:43;5.45;;;3.10;;
59239;SDS011;45010;53.640;10.578;2023-07-29T16:33:44;7.80;;;3.05;;
59239;SDS011;45010;53.640;10.578;2023-07-29T16:36:44;5.22;;;2.80;;
59239;SDS011;45010;53.640;10.578;2023-07-29T16:39:45;7.00;;;2.58;;
59239;SDS011;45010;53.640;10.578;2023-07-29T16:42:45;4.13;;;2.67;;
59239;SDS011;45010;53.640;10.578;2023-07-29T16:45:45;6.40;;;2.63;;
59239;SDS011;45010;53.640;10.578;2023-07-29T16:48:46;7.47;;;2.67;;
59239;SDS011;45010;53.640;10.578;2023-07-29T16:51:47;4.82;;;2.55;;
59239;SDS011;45010;53.640;10.578;2023-07-29T16:54:48;6.28;;;2.63;;
59239;SDS011;45010;53.640;10.578;2023-07-29T16:57:49;3.22;;;2.35;;
59239;SDS011;45010;53.640;10.578;2023-07-29T17:00:49;5.47;;;2.33;;
59239;SDS011;45010;53.640;10.578;2023-07-29T17:03:49;3.88;;;2.40;;
59239;SDS011;45010;53.640;10.578;2023-07-29T17:06:50;3.58;;;2.55;;
59239;SDS011;45010;53.640;10.578;2023-07-29T17:09:50;5.07;;;2.40;;
59239;SDS011;45010;53.640;10.578;2023-07-29T17:12:52;5.00;;;2.25;;
59239;SDS011;45010;53.640;10.578;2023-07-29T17:15:52;6.57;;;2.40;;
59239;SDS011;45010;53.640;10.578;2023-07-29T17:18:53;3.65;;;2.10;;
59239;SDS011;45010;53.640;10.578;2023-07-29T17:21:53;2.75;;;2.22;;
59239;SDS011;45010;53.640;10.578;2023-07-29T17:24:53;2.15;;;1.83;;
59239;SDS011;45010;53.640;10.578;2023-07-29T17:27:54;3.65;;;2.00;;
59239;SDS011;45010;53.640;10.578;2023-07-29T17:30:55;4.47;;;2.63;;
59239;SDS011;45010;53.640;10.578;2023-07-29T17:33:55;3.53;;;2.03;;
59239;SDS011;45010;53.640;10.578;2023-07-29T17:36:56;4.50;;;2.10;;
59239;SDS011;45010;53.640;10.578;2023-07-29T17:39:56;2.60;;;2.13;;
59239;SDS011;45010;53.640;10.578;2023-07-29T17:42:56;2.53;;;1.73;;
59239;SDS011;45010;53.640;10.578;2023-07-29T17:45:56;3.22;;;2.00;;
59239;SDS011;45010;53.640;10.578;2023-07-29T17:48:57;4.50;;;2.03;;
59239;SDS011;45010;53.640;10.578;2023-07-29T17:51:57;6.25;;;2.00;;
59239;SDS011;45010;53.640;10.578;2023-07-29T17:54:57;5.57;;;2.10;;
59239;SDS011;45010;53.640;10.578;2023-07-29T17:57:58;5.05;;;2.10;;